Hackettstown, NJ

9:18 AM EST on December 06, 2016 (GMT -0500)
Panther Valley - Bowers Glen Upper | | Change Station

Elev 925 ft 40.90 °N, 74.85 °W | Updated 14 seconds ago

Clear
Clear
34.9 °F
Feels Like 35 °F
N
0.0
Wind Variable Wind from SE
Gusts 0.0 mph

Today
High -- | Low -- °F
--% Chance of Precip.
Yesterday
High -- | Low -- °F
Precip. -- in
Pressure 30.14 in
Visibility 8.0 miles
Clouds Clear
Windchill 35 °F
Dew Point 30 °F
Humidity 81%
Rainfall 0.00 in
Snow Depth Not available.
7:09 AM 4:31 PM
Waxing Crescent, 42% visible
METAR KSMQ 061353Z AUTO 00000KT 8SM CLR M01/M02 A3013 RMK AO2 SLP205 T10061017
Pressure 30.14 in
Visibility 8.0 miles
Clouds Clear
Windchill 35 °F
Dew Point 30 °F
Humidity 81%
Rainfall 0.00 in
Snow Depth Not available.
7:09 AM 4:31 PM
Waxing Crescent, 42% visible
METAR KSMQ 061353Z AUTO 00000KT 8SM CLR M01/M02 A3013 RMK AO2 SLP205 T10061017

10-Day Weather Forecast

Almanac

Astronomy

Dec. 06, 2016 Rise Set
Actual Time
Civil Twilight
Nautical Twilight
Astronomical Twilight
Moon
Length of Visible Light
Length of Day
Tomorrow will be .
, % of the Moon is Illuminated

Today's Extremes

State Highs State Lows

Community

WunderPhotos

Upload Photos

1,955,949 photos uploaded!

WunderBlog® & News

Nearby

Air Quality

  Air Quality AQ Index Pollutant
Not available.

Snow Depth

Station Depth Elevation

Earthquake Activity

City Distance Mag. Time & Date
Minimum magnitude displayed is 2.5.

Coastal Water Temperatures

Place Temperature

Stations

Nearby Weather Stations

Station Location Temp. Windchill Dew Point Humidity Wind Precip. Elev Updated Type
                   

Watches & Warnings

There are currently no watches in effect.